North Lakhimpur, India

2:00 PM IST on April 29, 2017 (GMT +0530)
Dibrugarh | | Change Station

Elev 361 ft 27.48 °N, 95.02 °E | Updated 1 hour ago

Partly Cloudy
Partly Cloudy
75 °F
Feels Like 75 °F
N
5
Wind Variable Wind from ENE

Today
High -- | Low -- °F
--% Chance of Precip.
Yesterday
High -- | Low -- °F
Precip. -- in
Pressure 29.89 in
Visibility 1.2 miles
Clouds Scattered Clouds 1800 ft
Few 2500 ft
Overcast 8000 ft
Dew Point 66 °F
Humidity 73%
Rainfall 0.00 in
Snow Depth Not available.
4:36 AM 5:45 PM
Waxing Crescent, 12% visible
METAR VEMN 290730Z 07004KT 2000 -RA SCT018 FEW025CB OVC080 24/19 Q1012 NO SIG
Pressure 29.89 in
Visibility 1.2 miles
Clouds Scattered Clouds 1800 ft
Few 2500 ft
Overcast 8000 ft
Dew Point 66 °F
Humidity 73%
Rainfall 0.00 in
Snow Depth Not available.
4:36 AM 5:45 PM
Waxing Crescent, 12% visible
METAR VEMN 290730Z 07004KT 2000 -RA SCT018 FEW025CB OVC080 24/19 Q1012 NO SIG

Get Severe Weather Alerts

Thanks for signing up!

Be on the lookout for a verification email in your inbox.

You'll start receiving the daily forecast at 8 AM.

×

10-Day Weather Forecast

No radar image for this location.
×

Almanac

Astronomy

Apr. 29, 2017 Rise Set
Actual Time
Civil Twilight
Nautical Twilight
Astronomical Twilight
Moon
Length of Visible Light
Length of Day
Tomorrow will be .
, % of the Moon is Illuminated

Today's Extremes

Country Highs Country Lows

Community

WunderPhotos

WunderBlog® & News

Nearby

Air Quality

  Air Quality AQ Index Pollutant
Not available.

Snow Depth

Station Depth Elevation

Earthquake Activity

City Distance Mag. Time & Date
Minimum magnitude displayed is 2.5.

Coastal Water Temperatures

Place Temperature

Stations

Nearby Weather Stations

Station Location Temp. Windchill Dew Point Humidity Wind Precip. Elev Updated Type